Time;durP1;ratioP1;P1;durP2;ratioP2;P2;SDS_P1;SDS_P2;PMS_P1;PMS_P2;Temp;Humidity;BMP_temperature;BMP_pressure;BME280_temperature;BME280_humidity;BME280_pressure;Samples;Min_cycle;Max_cycle;Signal;HPM_P1;HPM_P2
2022/05/27 00:01:05;;;;;;;2.03;1.60;;;17.10;89.20;;;;;;5116143;28;20471;-69
2022/05/27 00:03:32;;;;;;;2.20;1.80;;;17.10;89.40;;;;;;5116177;28;20441;-69
2022/05/27 00:05:59;;;;;;;1.83;1.73;;;17.10;89.20;;;;;;5116154;28;20438;-69
2022/05/27 00:08:26;;;;;;;3.10;1.57;;;17.10;89.10;;;;;;5115763;28;20934;-70
2022/05/27 00:10:55;;;;;;;2.63;1.67;;;17.00;89.80;;;;;;5115965;28;20869;-69
2022/05/27 00:13:22;;;;;;;4.60;2.10;;;17.00;89.80;;;;;;5115719;28;20938;-69
2022/05/27 00:15:50;;;;;;;5.07;1.60;;;17.00;89.80;;;;;;5116004;28;20454;-69
2022/05/27 00:18:17;;;;;;;1.73;1.37;;;17.00;90.20;;;;;;5115834;28;20458;-69
2022/05/27 00:20:44;;;;;;;4.40;2.07;;;17.00;89.80;;;;;;5115825;28;20490;-69
2022/05/27 00:23:11;;;;;;;2.10;1.77;;;17.00;90.20;;;;;;5115829;28;20454;-69
2022/05/27 00:25:38;;;;;;;4.00;1.60;;;17.00;90.50;;;;;;5115859;28;20835;-69
2022/05/27 00:28:05;;;;;;;4.60;1.57;;;16.90;90.00;;;;;;5116062;28;20460;-69
2022/05/27 00:30:32;;;;;;;5.83;2.40;;;16.90;90.50;;;;;;5114919;28;20489;-69
2022/05/27 00:33:00;;;;;;;9.30;1.90;;;16.90;90.30;;;;;;5115470;28;20454;-69
2022/05/27 00:35:27;;;;;;;3.17;1.70;;;17.00;90.40;;;;;;5115612;28;20443;-69
2022/05/27 00:37:54;;;;;;;2.60;1.60;;;17.00;90.40;;;;;;5115614;28;20486;-70
2022/05/27 00:40:22;;;;;;;6.37;1.60;;;17.00;90.30;;;;;;5115324;28;20458;-69
2022/05/27 00:42:49;;;;;;;2.80;1.63;;;17.00;90.30;;;;;;5115127;28;20949;-69
2022/05/27 00:45:18;;;;;;;3.83;1.80;;;17.00;90.40;;;;;;5115261;28;20449;-70
2022/05/27 00:47:48;;;;;;;5.50;1.80;;;16.90;90.50;;;;;;5115526;28;20443;-69
2022/05/27 00:50:19;;;;;;;3.77;1.33;;;16.90;90.30;;;;;;5115056;28;20493;-69
2022/05/27 00:52:48;;;;;;;5.23;1.30;;;16.90;90.40;;;;;;5115252;28;20442;-69
2022/05/27 00:55:18;;;;;;;2.93;1.93;;;16.90;90.50;;;;;;5115371;28;20454;-69
2022/05/27 00:57:49;;;;;;;3.07;1.97;;;16.90;90.40;;;;;;5115111;28;20423;-69
2022/05/27 01:00:19;;;;;;;4.47;1.97;;;16.90;90.40;;;;;;5115075;28;20459;-69
2022/05/27 01:02:47;;;;;;;3.93;1.60;;;16.90;90.60;;;;;;5114991;28;20462;-69
2022/05/27 01:05:19;;;;;;;7.73;2.00;;;16.80;91.10;;;;;;5115011;28;20447;-69
2022/05/27 01:07:46;;;;;;;5.33;1.80;;;16.70;91.60;;;;;;5114999;28;20434;-69
2022/05/27 01:10:17;;;;;;;3.43;1.40;;;16.70;92.60;;;;;;5114892;28;20495;-69
2022/05/27 01:12:58;;;;;;;3.77;2.00;;;16.60;93.20;;;;;;5114892;28;20435;-69
2022/05/27 01:15:34;;;;;;;3.30;2.10;;;16.50;93.60;;;;;;5114895;28;20431;-69
2022/05/27 01:18:13;;;;;;;3.30;2.03;;;16.40;94.10;;;;;;5115023;28;20893;-69
2022/05/27 01:20:50;;;;;;;2.50;2.00;;;16.30;94.20;;;;;;5114355;28;20992;-70
2022/05/27 01:23:58;;;;;;;4.70;1.70;;;16.30;94.60;;;;;;5114736;28;20419;-70
2022/05/27 01:26:53;;;;;;;7.00;2.23;;;16.30;94.60;;;;;;5011976;28;20451;-69
2022/05/27 01:29:40;;;;;;;4.27;1.80;;;16.30;94.00;;;;;;5003627;28;20835;-69
2022/05/27 01:32:12;;;;;;;2.73;1.70;;;16.30;93.90;;;;;;5097306;28;20450;-69
2022/05/27 01:34:52;;;;;;;4.27;2.00;;;16.30;93.50;;;;;;5114609;28;20443;-69
2022/05/27 01:37:25;;;;;;;5.47;2.43;;;16.30;93.70;;;;;;5114345;28;20440;-69
2022/05/27 01:39:59;;;;;;;4.63;2.17;;;16.30;93.50;;;;;;5114700;28;20465;-69
2022/05/27 01:42:34;;;;;;;4.80;1.93;;;16.30;93.10;;;;;;5113415;28;20427;-70
2022/05/27 01:45:07;;;;;;;2.03;1.60;;;16.40;92.80;;;;;;5114030;28;20812;-70
2022/05/27 01:47:39;;;;;;;11.30;2.93;;;16.40;92.70;;;;;;5114128;28;20459;-70
2022/05/27 01:50:11;;;;;;;3.90;2.10;;;16.40;92.50;;;;;;5114104;28;20486;-70
2022/05/27 01:52:43;;;;;;;3.00;2.37;;;16.40;92.60;;;;;;5114162;28;20432;-70
2022/05/27 01:55:14;;;;;;;4.00;2.07;;;16.40;92.70;;;;;;5113886;28;20438;-70
2022/05/27 01:57:46;;;;;;;4.27;3.03;;;16.50;92.70;;;;;;5114152;28;20434;-70
2022/05/27 02:00:19;;;;;;;4.10;2.57;;;16.50;92.40;;;;;;5114056;28;20818;-70
2022/05/27 02:02:51;;;;;;;4.43;2.80;;;16.50;92.30;;;;;;5113990;28;20446;-70
2022/05/27 02:05:22;;;;;;;5.13;3.00;;;16.50;92.40;;;;;;5114121;28;20431;-70
2022/05/27 02:07:52;;;;;;;6.97;2.97;;;16.40;92.60;;;;;;5114009;28;20514;-70
2022/05/27 02:10:26;;;;;;;6.20;3.40;;;16.50;92.50;;;;;;5113476;28;20866;-70
2022/05/27 02:12:58;;;;;;;5.20;3.33;;;16.50;92.70;;;;;;5114215;28;20426;-70
2022/05/27 02:15:30;;;;;;;3.80;2.73;;;16.50;92.70;;;;;;5114030;28;20456;-70
2022/05/27 02:18:03;;;;;;;4.67;3.20;;;16.40;92.90;;;;;;5113875;28;20431;-70
2022/05/27 02:20:34;;;;;;;8.00;4.00;;;16.40;93.10;;;;;;5113809;28;20469;-70
2022/05/27 02:23:06;;;;;;;4.73;3.10;;;16.40;94.10;;;;;;5113579;28;20933;-69
2022/05/27 02:25:37;;;;;;;8.33;3.97;;;16.40;94.40;;;;;;5113734;28;20435;-69
2022/05/27 02:28:12;;;;;;;5.93;4.00;;;16.40;94.80;;;;;;5113813;28;20443;-69
2022/05/27 02:30:42;;;;;;;5.90;3.90;;;16.30;95.20;;;;;;5113528;28;20490;-69
2022/05/27 02:36:02;;;;;;;7.30;3.50;;;16.20;96.10;;;;;;5113752;28;20402;-68
2022/05/27 02:38:29;;;;;;;7.90;4.10;;;16.10;96.30;;;;;;5113641;28;20454;-68
2022/05/27 02:41:08;;;;;;;8.73;3.47;;;16.10;96.90;;;;;;5113425;28;20463;-69
2022/05/27 02:43:47;;;;;;;9.03;3.10;;;16.00;96.90;;;;;;5113352;28;20434;-69
2022/05/27 02:46:24;;;;;;;6.00;3.90;;;16.00;97.10;;;;;;5113318;28;20481;-69
2022/05/27 02:49:00;;;;;;;4.77;2.80;;;16.00;97.40;;;;;;5113568;28;20446;-69
2022/05/27 02:51:35;;;;;;;3.50;2.60;;;15.90;97.70;;;;;;5113675;28;20463;-69
2022/05/27 02:54:09;;;;;;;6.00;2.63;;;15.90;97.00;;;;;;5115060;28;20443;-69
2022/05/27 02:56:43;;;;;;;6.23;2.83;;;15.80;97.20;;;;;;5117572;28;20438;-69
2022/05/27 02:59:11;;;;;;;3.90;2.50;;;15.80;97.50;;;;;;5117084;28;20905;-69
2022/05/27 03:01:38;;;;;;;7.23;3.30;;;15.80;97.40;;;;;;5117325;28;20952;-69
2022/05/27 03:04:07;;;;;;;3.80;2.53;;;15.80;97.60;;;;;;5117259;28;20450;-69
2022/05/27 03:06:47;;;;;;;4.90;3.40;;;15.80;97.80;;;;;;5117520;28;20446;-69
2022/05/27 03:09:19;;;;;;;3.63;2.53;;;15.80;97.90;;;;;;5117421;28;20422;-69
2022/05/27 03:11:51;;;;;;;3.10;2.80;;;15.70;97.90;;;;;;5117343;28;20482;-69
2022/05/27 03:14:38;;;;;;;6.57;3.00;;;15.70;98.00;;;;;;5116931;28;20508;-69
2022/05/27 03:17:19;;;;;;;6.87;2.97;;;15.70;98.20;;;;;;5117137;28;20797;-69
2022/05/27 03:20:00;;;;;;;6.73;3.20;;;15.70;98.30;;;;;;5118278;28;20462;-69
2022/05/27 03:22:40;;;;;;;4.23;2.80;;;15.60;98.70;;;;;;5116990;28;20426;-69
2022/05/27 03:25:16;;;;;;;4.70;2.80;;;15.60;99.10;;;;;;5118561;28;20948;-67
2022/05/27 03:27:48;;;;;;;5.40;2.93;;;15.60;99.10;;;;;;5130961;28;20442;-67
2022/05/27 03:30:19;;;;;;;3.07;2.60;;;15.60;99.30;;;;;;5130143;28;20497;-67
2022/05/27 03:32:50;;;;;;;4.57;3.20;;;15.60;99.80;;;;;;5131126;28;20427;-67
2022/05/27 03:35:28;;;;;;;3.50;2.73;;;15.60;99.90;;;;;;5131679;28;20426;-67
2022/05/27 03:38:02;;;;;;;5.33;3.33;;;15.60;99.90;;;;;;5132725;28;20433;-67
2022/05/27 03:40:34;;;;;;;5.47;3.00;;;15.60;99.90;;;;;;5132451;28;20463;-67
2022/05/27 03:43:03;;;;;;;4.50;3.27;;;15.60;99.90;;;;;;5130689;28;20423;-67
2022/05/27 03:45:30;;;;;;;4.93;3.33;;;15.60;99.90;;;;;;5130438;28;20443;-67
2022/05/27 03:47:56;;;;;;;5.40;3.13;;;15.60;99.90;;;;;;5129885;28;20458;-66
2022/05/27 03:50:27;;;;;;;5.10;3.20;;;15.60;99.90;;;;;;5128811;28;20487;-66
2022/05/27 03:52:55;;;;;;;7.60;3.13;;;15.60;99.90;;;;;;5128171;28;20439;-66
2022/05/27 03:55:25;;;;;;;6.13;3.27;;;15.60;99.90;;;;;;5127111;28;20435;-67
2022/05/27 03:57:52;;;;;;;5.17;3.43;;;15.60;99.90;;;;;;5126105;28;20942;-67
2022/05/27 04:00:20;;;;;;;7.27;4.10;;;15.50;99.90;;;;;;5128926;28;20473;-67
2022/05/27 04:02:47;;;;;;;4.57;3.20;;;15.50;99.90;;;;;;5131070;28;20470;-66
2022/05/27 04:05:17;;;;;;;6.50;3.60;;;15.50;99.90;;;;;;5126638;28;20443;-66
2022/05/27 04:07:46;;;;;;;4.43;3.80;;;15.50;99.90;;;;;;5128026;28;20463;-66
2022/05/27 04:10:15;;;;;;;4.97;4.40;;;15.50;99.90;;;;;;5126361;28;20487;-66
2022/05/27 04:12:42;;;;;;;6.50;3.67;;;15.50;99.90;;;;;;5126153;28;20941;-66
2022/05/27 04:15:09;;;;;;;5.40;3.83;;;15.50;99.90;;;;;;5125939;28;20461;-66
2022/05/27 04:17:36;;;;;;;4.40;3.90;;;15.50;99.90;;;;;;5125318;28;20443;-66
2022/05/27 04:20:06;;;;;;;7.93;3.60;;;15.50;99.90;;;;;;5125153;28;20495;-66
2022/05/27 04:22:33;;;;;;;5.30;4.30;;;15.40;99.90;;;;;;5125397;28;20431;-66
2022/05/27 04:25:02;;;;;;;5.23;3.77;;;15.40;99.90;;;;;;5124968;28;20451;-66
2022/05/27 04:27:29;;;;;;;4.43;4.03;;;15.40;99.90;;;;;;5126860;28;20449;-66
2022/05/27 04:29:57;;;;;;;9.87;3.87;;;15.40;99.90;;;;;;5127219;28;21052;-66
2022/05/27 04:32:25;;;;;;;4.30;3.87;;;15.40;99.90;;;;;;5124362;28;20453;-66
2022/05/27 04:34:52;;;;;;;5.70;4.30;;;15.40;99.90;;;;;;5125496;28;20945;-66
2022/05/27 04:37:19;;;;;;;6.17;5.10;;;15.30;99.90;;;;;;5126109;28;20450;-66
2022/05/27 04:39:46;;;;;;;7.37;3.93;;;15.40;99.90;;;;;;5125385;28;20462;-66
2022/05/27 04:42:14;;;;;;;5.30;4.00;;;15.40;99.90;;;;;;5125951;28;20439;-66
2022/05/27 04:44:41;;;;;;;8.43;4.57;;;15.40;99.90;;;;;;5126722;28;20438;-67
2022/05/27 04:47:09;;;;;;;5.97;4.63;;;15.40;99.90;;;;;;5126781;28;20455;-67
2022/05/27 04:52:21;;;;;;;5.70;4.43;;;15.40;99.90;;;;;;5126075;28;20454;-67
2022/05/27 04:54:48;;;;;;;5.50;5.00;;;15.50;99.90;;;;;;5126369;28;20624;-67
2022/05/27 04:57:19;;;;;;;8.67;5.40;;;15.50;99.90;;;;;;5126662;28;20480;-67
2022/05/27 04:59:46;;;;;;;9.27;7.40;;;15.50;99.90;;;;;;5124439;28;20475;-66
2022/05/27 05:02:14;;;;;;;8.40;6.30;;;15.60;99.90;;;;;;5127243;28;20462;-67
2022/05/27 05:04:41;;;;;;;5.63;5.13;;;15.60;99.90;;;;;;5127718;28;20500;-67
2022/05/27 05:07:09;;;;;;;5.37;4.83;;;15.60;99.90;;;;;;5128829;28;20450;-67
2022/05/27 05:09:37;;;;;;;5.77;5.27;;;15.60;99.90;;;;;;5125919;28;20470;-66
2022/05/27 05:12:04;;;;;;;11.73;6.50;;;15.60;99.90;;;;;;5124033;28;20485;-66
2022/05/27 05:14:33;;;;;;;8.23;6.20;;;15.60;99.90;;;;;;5124612;28;20449;-66
2022/05/27 05:17:00;;;;;;;5.10;4.60;;;15.60;99.90;;;;;;5124219;28;20451;-66
2022/05/27 05:19:26;;;;;;;4.73;4.33;;;15.60;99.90;;;;;;5123941;28;20539;-66
2022/05/27 05:21:53;;;;;;;4.90;4.50;;;15.70;99.90;;;;;;5125211;28;20439;-66
2022/05/27 05:24:20;;;;;;;3.87;3.57;;;15.70;99.90;;;;;;5127423;28;20518;-66
2022/05/27 05:26:47;;;;;;;4.23;3.80;;;15.70;99.90;;;;;;5126277;28;20476;-67
2022/05/27 05:29:14;;;;;;;3.63;3.27;;;15.80;99.90;;;;;;5126211;28;20447;-67
2022/05/27 05:31:42;;;;;;;2.83;2.63;;;15.90;99.90;;;;;;5125787;28;20496;-66
2022/05/27 05:34:08;;;;;;;2.73;2.47;;;16.00;99.90;;;;;;5125647;28;20454;-66
2022/05/27 05:36:35;;;;;;;2.77;2.33;;;16.00;99.90;;;;;;5125479;28;20447;-66
2022/05/27 05:39:03;;;;;;;1.80;1.70;;;16.10;99.90;;;;;;5125706;28;20450;-66
2022/05/27 05:41:32;;;;;;;2.10;1.50;;;16.20;99.90;;;;;;5126067;28;20446;-66
2022/05/27 05:43:59;;;;;;;1.47;1.37;;;16.20;99.90;;;;;;5125811;28;20446;-66
2022/05/27 05:46:27;;;;;;;1.50;1.40;;;16.30;99.90;;;;;;5123365;28;20481;-66
2022/05/27 05:48:55;;;;;;;1.57;1.47;;;16.40;99.90;;;;;;5124679;28;20458;-67
2022/05/27 05:51:23;;;;;;;2.20;1.83;;;16.40;99.90;;;;;;5123433;28;21092;-66
2022/05/27 05:53:49;;;;;;;1.20;1.20;;;16.50;99.90;;;;;;5122175;28;20451;-66
2022/05/27 05:56:16;;;;;;;1.37;1.27;;;16.60;99.90;;;;;;5123663;28;20537;-66
2022/05/27 05:58:43;;;;;;;1.87;1.30;;;16.50;99.90;;;;;;5123891;28;20447;-66
2022/05/27 06:01:10;;;;;;;2.37;1.20;;;16.50;99.90;;;;;;5125225;28;20451;-67
2022/05/27 06:03:37;;;;;;;1.53;1.33;;;16.50;99.90;;;;;;5127430;28;20454;-67
2022/05/27 06:06:05;;;;;;;1.80;1.53;;;16.50;99.90;;;;;;5127404;28;20450;-67
2022/05/27 06:08:32;;;;;;;2.17;1.50;;;16.60;99.90;;;;;;5127664;28;20454;-67
2022/05/27 06:10:59;;;;;;;1.70;1.60;;;16.60;99.90;;;;;;5126476;28;20483;-67
2022/05/27 06:13:28;;;;;;;3.40;1.30;;;16.60;99.90;;;;;;5128501;28;20447;-67
2022/05/27 06:15:55;;;;;;;2.60;1.57;;;16.70;99.90;;;;;;5127881;28;20466;-67
2022/05/27 06:18:21;;;;;;;1.60;1.00;;;16.70;99.90;;;;;;5126880;28;20503;-67
2022/05/27 06:20:48;;;;;;;2.40;1.40;;;16.80;99.70;;;;;;5125147;28;20969;-66
2022/05/27 06:23:16;;;;;;;2.17;1.03;;;16.80;99.30;;;;;;5126198;28;20450;-67
2022/05/27 06:25:43;;;;;;;2.27;1.50;;;16.80;99.30;;;;;;5128968;28;20941;-67
2022/05/27 06:36:23;;;;;;;3.47;1.60;;;16.90;99.50;;;;;;5132630;28;20403;-67
2022/05/27 06:38:51;;;;;;;4.97;1.60;;;16.90;99.40;;;;;;5136625;28;20442;-66
2022/05/27 06:41:17;;;;;;;1.73;1.40;;;16.90;99.30;;;;;;5130956;28;20466;-67
2022/05/27 06:43:45;;;;;;;2.27;1.37;;;16.90;99.10;;;;;;5132297;28;20810;-67
2022/05/27 06:46:13;;;;;;;2.50;1.50;;;16.90;99.10;;;;;;5131699;28;20461;-67
2022/05/27 06:48:40;;;;;;;2.60;1.50;;;16.90;99.00;;;;;;5131347;28;20455;-67
2022/05/27 06:51:08;;;;;;;2.53;1.30;;;16.90;99.00;;;;;;5129478;28;20491;-67
2022/05/27 06:53:35;;;;;;;1.63;1.20;;;16.90;98.80;;;;;;5126788;28;20518;-66
2022/05/27 06:56:03;;;;;;;3.00;1.73;;;16.90;98.80;;;;;;5130449;28;20442;-66
2022/05/27 06:58:30;;;;;;;3.97;1.70;;;16.80;98.90;;;;;;5129965;28;20443;-66
2022/05/27 07:00:57;;;;;;;7.20;1.50;;;16.80;99.10;;;;;;5131774;28;20821;-66
2022/05/27 07:03:24;;;;;;;4.03;2.07;;;16.80;99.30;;;;;;5133024;28;20450;-67
2022/05/27 07:05:51;;;;;;;4.50;2.40;;;16.90;99.50;;;;;;5133472;28;20453;-67
2022/05/27 07:08:18;;;;;;;3.27;1.80;;;17.00;99.40;;;;;;5134182;28;20446;-67
2022/05/27 07:10:45;;;;;;;3.40;1.60;;;17.00;99.20;;;;;;5133195;28;20466;-67
2022/05/27 07:13:14;;;;;;;3.83;2.60;;;17.20;99.20;;;;;;5133441;28;20453;-67
2022/05/27 07:15:41;;;;;;;3.37;2.00;;;17.30;99.20;;;;;;5131539;28;20478;-67
2022/05/27 07:18:09;;;;;;;5.70;1.67;;;17.40;99.00;;;;;;5132318;28;20803;-67
2022/05/27 07:20:37;;;;;;;2.93;1.90;;;17.50;98.80;;;;;;5132512;28;20492;-67
2022/05/27 07:23:04;;;;;;;3.70;1.60;;;17.70;98.10;;;;;;5133018;28;20449;-67
2022/05/27 07:25:35;;;;;;;2.13;1.90;;;17.80;97.90;;;;;;5132989;28;20846;-68
2022/05/27 07:28:02;;;;;;;3.80;2.83;;;18.00;97.90;;;;;;5132122;28;20435;-68
2022/05/27 07:30:30;;;;;;;3.03;2.13;;;18.10;97.30;;;;;;5133519;28;20470;-68
2022/05/27 07:32:57;;;;;;;2.50;1.93;;;18.10;97.10;;;;;;5131481;28;20502;-68
2022/05/27 07:35:24;;;;;;;3.73;2.30;;;18.10;97.00;;;;;;5133695;28;20443;-68
2022/05/27 07:37:51;;;;;;;3.87;2.40;;;18.10;96.90;;;;;;5136177;28;20427;-68
2022/05/27 07:40:18;;;;;;;3.10;2.60;;;18.20;97.40;;;;;;5133850;28;20474;-68
2022/05/27 07:42:45;;;;;;;3.50;3.00;;;18.30;97.90;;;;;;5132576;28;20950;-67
2022/05/27 07:45:14;;;;;;;3.40;3.10;;;18.40;97.40;;;;;;5132708;28;20998;-68
2022/05/27 07:47:42;;;;;;;5.73;3.40;;;18.50;97.40;;;;;;5132706;28;20447;-69
2022/05/27 07:50:13;;;;;;;5.07;2.90;;;18.60;97.60;;;;;;5131368;28;20512;-67
2022/05/27 07:52:42;;;;;;;4.90;3.50;;;18.80;98.00;;;;;;5130078;28;20520;-67
2022/05/27 07:55:10;;;;;;;6.90;5.20;;;18.90;97.00;;;;;;5131187;28;20447;-67
2022/05/27 07:57:42;;;;;;;4.37;3.90;;;19.00;96.70;;;;;;5130482;28;20447;-67
2022/05/27 08:00:12;;;;;;;4.30;3.90;;;19.20;97.00;;;;;;5130251;28;20467;-67
2022/05/27 08:02:40;;;;;;;4.40;4.00;;;19.30;96.90;;;;;;5130515;28;20427;-67
2022/05/27 08:05:10;;;;;;;4.40;4.00;;;19.30;96.30;;;;;;5130215;28;20532;-67
2022/05/27 08:07:37;;;;;;;4.83;4.20;;;19.30;96.00;;;;;;5130142;28;20439;-68
2022/05/27 08:10:04;;;;;;;4.60;3.23;;;19.40;96.30;;;;;;5128869;28;20845;-68
2022/05/27 08:12:31;;;;;;;6.73;3.67;;;19.70;95.60;;;;;;5129286;28;20477;-68
2022/05/27 08:14:58;;;;;;;8.17;4.53;;;19.80;93.80;;;;;;5129177;28;20538;-68
2022/05/27 08:17:25;;;;;;;4.07;3.67;;;19.80;93.60;;;;;;5131202;28;20458;-68
2022/05/27 08:19:52;;;;;;;5.47;3.83;;;19.70;93.60;;;;;;5130265;28;20470;-69
2022/05/27 08:22:20;;;;;;;6.37;3.83;;;19.60;93.80;;;;;;5130996;28;20476;-69
2022/05/27 08:24:47;;;;;;;5.57;5.07;;;19.30;93.80;;;;;;5131466;28;20452;-68
2022/05/27 08:27:14;;;;;;;6.23;5.63;;;19.10;94.70;;;;;;5130183;28;20492;-68
2022/05/27 08:29:41;;;;;;;6.03;5.43;;;19.10;95.50;;;;;;5130584;28;20467;-67
2022/05/27 08:32:08;;;;;;;9.30;4.90;;;19.10;96.40;;;;;;5131754;28;20475;-67
2022/05/27 08:40:17;;;;;;;10.17;4.30;;;19.50;92.80;;;;;;5130577;28;20449;-67
2022/05/27 08:42:52;;;;;;;5.37;3.50;;;19.70;93.40;;;;;;5129782;28;20419;-67
2022/05/27 08:45:23;;;;;;;6.13;3.70;;;20.00;91.90;;;;;;5131157;28;20450;-68
2022/05/27 08:47:53;;;;;;;7.07;3.53;;;20.30;91.20;;;;;;5131824;28;20458;-68
2022/05/27 08:50:29;;;;;;;8.67;3.80;;;20.50;90.30;;;;;;5131973;28;20528;-68
2022/05/27 08:53:03;;;;;;;7.23;3.80;;;20.60;89.90;;;;;;5130442;28;20462;-68
2022/05/27 09:01:14;;;;;;;4.10;3.20;;;20.80;86.30;;;;;;5131192;28;20469;-68
2022/05/27 09:03:46;;;;;;;9.27;3.23;;;21.00;86.10;;;;;;5131514;28;20453;-68
2022/05/27 09:06:15;;;;;;;8.73;3.40;;;21.00;82.80;;;;;;5130661;28;20427;-68
2022/05/27 09:08:44;;;;;;;7.20;3.37;;;20.90;82.90;;;;;;5129897;28;20457;-68
2022/05/27 09:11:22;;;;;;;7.20;3.80;;;21.00;86.40;;;;;;5128631;28;20474;-68
2022/05/27 09:13:56;;;;;;;8.03;3.43;;;21.00;82.70;;;;;;5131016;28;20438;-68
2022/05/27 09:16:32;;;;;;;7.60;3.57;;;21.10;82.30;;;;;;5133366;28;20426;-68
2022/05/27 09:19:05;;;;;;;4.70;3.07;;;21.20;78.50;;;;;;5130683;28;20430;-68
2022/05/27 09:21:39;;;;;;;4.67;3.03;;;21.30;81.20;;;;;;5130988;28;20453;-68
2022/05/27 09:24:19;;;;;;;5.87;3.07;;;21.50;79.30;;;;;;5131827;28;20423;-68
2022/05/27 09:26:54;;;;;;;7.23;3.57;;;21.60;78.10;;;;;;5131857;28;20435;-68
2022/05/27 09:29:35;;;;;;;7.33;3.90;;;21.60;75.30;;;;;;5113783;28;20466;-68
2022/05/27 09:32:07;;;;;;;8.23;3.40;;;21.60;75.70;;;;;;5130753;28;20463;-68
2022/05/27 09:34:38;;;;;;;5.53;3.40;;;21.70;77.20;;;;;;5130314;28;20427;-68
2022/05/27 09:37:09;;;;;;;5.73;3.23;;;21.80;77.00;;;;;;5130035;28;20439;-68
2022/05/27 09:39:38;;;;;;;5.37;2.97;;;21.80;73.50;;;;;;5129653;28;20530;-68
2022/05/27 09:42:14;;;;;;;6.00;3.00;;;21.60;73.20;;;;;;5129556;28;20443;-68
2022/05/27 09:44:48;;;;;;;5.90;3.13;;;21.60;74.30;;;;;;5130407;28;20510;-68
2022/05/27 09:47:16;;;;;;;4.37;3.17;;;21.70;72.70;;;;;;5129917;28;20484;-68
2022/05/27 09:49:44;;;;;;;5.50;3.40;;;21.90;71.60;;;;;;5130598;28;20466;-68
2022/05/27 09:52:11;;;;;;;3.30;3.03;;;21.90;72.90;;;;;;5130306;28;20547;-68
2022/05/27 09:54:46;;;;;;;5.20;3.13;;;22.10;70.80;;;;;;5129776;28;20475;-68
2022/05/27 09:57:22;;;;;;;4.40;2.90;;;22.20;65.60;;;;;;5130221;28;20434;-68
2022/05/27 09:59:53;;;;;;;5.67;2.80;;;22.20;67.10;;;;;;5131006;28;20843;-68
2022/05/27 10:02:24;;;;;;;8.37;3.20;;;22.40;69.70;;;;;;5130055;28;20451;-68
2022/05/27 10:04:56;;;;;;;8.07;3.57;;;22.70;67.40;;;;;;5129533;28;20809;-68
2022/05/27 10:07:33;;;;;;;4.90;3.00;;;22.90;66.40;;;;;;5130033;28;20431;-68
2022/05/27 10:10:21;;;;;;;4.33;2.70;;;23.00;63.40;;;;;;5130535;28;20473;-68
2022/05/27 10:12:49;;;;;;;5.43;2.40;;;23.20;61.10;;;;;;5131107;28;20463;-68
2022/05/27 10:15:34;;;;;;;3.60;2.07;;;23.30;64.80;;;;;;5132257;28;20443;-69
2022/05/27 10:18:14;;;;;;;5.53;2.50;;;23.50;58.60;;;;;;5132042;28;20427;-69
2022/05/27 10:20:42;;;;;;;3.37;2.50;;;23.50;57.50;;;;;;5130513;28;20489;-69
2022/05/27 10:23:12;;;;;;;5.43;2.40;;;23.70;55.10;;;;;;5129927;28;20454;-69
2022/05/27 10:25:42;;;;;;;4.77;2.30;;;23.50;55.30;;;;;;5129572;28;20438;-68
2022/05/27 10:28:11;;;;;;;3.43;1.97;;;23.10;55.30;;;;;;5129826;28;20435;-68
2022/05/27 10:30:42;;;;;;;5.17;2.30;;;23.00;59.40;;;;;;5129156;28;20477;-68
2022/05/27 10:33:38;;;;;;;6.70;2.53;;;23.10;56.70;;;;;;5130660;28;20497;-68
2022/05/27 10:36:26;;;;;;;3.53;2.30;;;23.30;56.80;;;;;;5130581;28;20469;-68
2022/05/27 10:39:02;;;;;;;4.83;2.37;;;23.30;56.40;;;;;;5131046;28;20424;-68
2022/05/27 10:41:41;;;;;;;5.40;2.80;;;23.20;56.10;;;;;;5130419;28;20423;-68
2022/05/27 10:44:15;;;;;;;7.90;3.20;;;22.90;56.80;;;;;;5129783;28;20427;-68
2022/05/27 10:46:52;;;;;;;3.83;2.60;;;22.80;59.20;;;;;;5130316;28;20450;-68
2022/05/27 10:49:55;;;;;;;5.90;3.17;;;22.90;61.60;;;;;;5129481;28;20430;-68
2022/05/27 10:52:41;;;;;;;5.20;2.63;;;23.00;60.10;;;;;;5070325;28;21004;-68
2022/05/27 10:55:20;;;;;;;5.70;2.63;;;23.40;62.30;;;;;;5129156;28;20488;-68
2022/05/27 11:04:03;;;;;;;3.30;2.27;;;27.30;51.20;;;;;;5128605;28;20453;-68
2022/05/27 11:06:43;;;;;;;5.90;2.33;;;28.50;45.20;;;;;;5128390;28;20792;-69
2022/05/27 11:09:23;;;;;;;6.10;2.17;;;29.40;44.00;;;;;;5127787;28;20427;-69
2022/05/27 11:11:55;;;;;;;5.97;2.07;;;30.20;41.90;;;;;;5127216;28;20438;-69
2022/05/27 11:17:35;;;;;;;10.87;2.40;;;30.50;36.70;;;;;;5131432;28;20407;-69
2022/05/27 11:20:46;;;;;;;3.53;2.63;;;30.80;38.10;;;;;;5132334;28;20466;-69
2022/05/27 11:23:30;;;;;;;14.73;2.87;;;31.20;37.80;;;;;;5028391;28;20440;-69
2022/05/27 11:26:05;;;;;;;4.80;2.20;;;31.20;37.10;;;;;;5130656;28;20547;-69
2022/05/27 11:29:03;;;;;;;4.47;2.77;;;30.80;36.80;;;;;;5131542;28;20448;-69
2022/05/27 11:31:43;;;;;;;7.37;2.70;;;30.50;37.50;;;;;;5131583;28;20445;-69
2022/05/27 11:34:22;;;;;;;7.70;2.53;;;30.70;36.80;;;;;;5131246;28;20481;-69
2022/05/27 11:37:12;;;;;;;5.00;2.60;;;31.10;35.20;;;;;;5131104;28;20484;-69
2022/05/27 11:40:09;;;;;;;4.50;2.33;;;31.70;34.10;;;;;;5126407;28;20478;-69
2022/05/27 11:43:05;;;;;;;4.60;2.30;;;31.80;30.80;;;;;;5130374;28;20427;-70
2022/05/27 11:45:33;;;;;;;4.10;2.00;;;31.60;29.70;;;;;;5124457;28;20925;-70
2022/05/27 11:48:04;;;;;;;4.50;2.00;;;31.30;30.40;;;;;;5131348;28;20447;-69
2022/05/27 11:50:49;;;;;;;1.77;1.37;;;31.00;30.60;;;;;;5130341;28;20526;-69
2022/05/27 11:53:28;;;;;;;3.37;1.70;;;31.30;31.70;;;;;;5131829;28;20473;-70
2022/05/27 11:56:03;;;;;;;2.47;1.50;;;31.30;31.60;;;;;;5132512;28;20427;-70
2022/05/27 11:58:39;;;;;;;3.73;2.00;;;31.00;30.00;;;;;;5132882;28;20434;-70
2022/05/27 12:01:10;;;;;;;4.40;2.00;;;30.30;31.40;;;;;;5134434;28;20466;-70
2022/05/27 12:03:45;;;;;;;3.73;1.63;;;29.60;34.60;;;;;;5131043;28;20420;-70
2022/05/27 12:06:18;;;;;;;2.73;1.63;;;29.30;33.80;;;;;;5134241;28;20446;-70
2022/05/27 12:08:49;;;;;;;5.47;2.93;;;29.90;35.40;;;;;;5136235;28;20423;-70
2022/05/27 12:11:23;;;;;;;6.53;2.07;;;30.50;31.90;;;;;;5134361;28;20882;-70
2022/05/27 12:13:54;;;;;;;3.83;1.50;;;31.20;30.80;;;;;;5131369;28;20467;-70
2022/05/27 12:16:24;;;;;;;6.80;2.30;;;31.70;30.10;;;;;;5131858;28;20464;-70
2022/05/27 12:18:57;;;;;;;5.70;2.47;;;32.10;29.20;;;;;;5131431;28;20443;-70
2022/05/27 12:21:28;;;;;;;5.97;2.80;;;32.20;28.20;;;;;;5130268;28;20829;-69
2022/05/27 12:23:58;;;;;;;6.53;2.27;;;32.40;28.10;;;;;;5130247;28;20427;-70
2022/05/27 12:26:29;;;;;;;4.33;2.23;;;32.60;27.80;;;;;;5132720;28;20456;-70
2022/05/27 12:28:58;;;;;;;6.30;2.40;;;33.10;27.20;;;;;;5130614;28;20430;-70
2022/05/27 12:31:27;;;;;;;5.10;2.40;;;32.90;26.10;;;;;;5129045;28;20458;-68
2022/05/27 12:33:55;;;;;;;4.20;2.17;;;32.50;27.30;;;;;;5130203;28;20539;-70
2022/05/27 12:36:25;;;;;;;5.63;2.33;;;32.10;27.10;;;;;;5131523;28;20457;-70
2022/05/27 12:38:54;;;;;;;6.50;2.23;;;31.30;27.70;;;;;;5130778;28;20439;-70
2022/05/27 12:41:35;;;;;;;5.90;2.17;;;30.30;29.60;;;;;;5130428;28;20478;-70
2022/05/27 12:44:04;;;;;;;6.33;2.53;;;30.10;31.10;;;;;;5130726;28;20422;-70
2022/05/27 12:46:33;;;;;;;6.17;2.10;;;30.60;31.20;;;;;;5130376;28;20455;-70
2022/05/27 12:49:23;;;;;;;4.63;2.30;;;31.30;29.40;;;;;;5130543;28;20518;-70
2022/05/27 12:51:50;;;;;;;5.70;2.70;;;31.70;28.10;;;;;;5132694;28;20454;-70
2022/05/27 12:54:50;;;;;;;4.47;1.93;;;32.50;27.70;;;;;;5134331;28;20874;-70
2022/05/27 13:03:52;;;;;;;6.70;2.73;;;31.90;26.40;;;;;;5130538;28;20469;-70
2022/05/27 13:06:38;;;;;;;6.90;2.53;;;31.60;27.30;;;;;;5129233;28;20446;-70
2022/05/27 13:09:08;;;;;;;8.43;2.47;;;32.00;28.50;;;;;;5129153;28;20434;-70
2022/05/27 13:11:46;;;;;;;6.40;2.30;;;32.70;26.40;;;;;;5127986;28;20972;-70
2022/05/27 13:14:23;;;;;;;4.50;2.07;;;33.10;24.90;;;;;;5128869;28;20510;-70
2022/05/27 13:17:03;;;;;;;4.70;2.27;;;33.40;25.00;;;;;;5130541;28;20431;-70
2022/05/27 13:19:36;;;;;;;6.60;2.50;;;34.00;25.10;;;;;;5130983;28;20583;-70
2022/05/27 13:22:10;;;;;;;5.23;2.17;;;34.10;24.70;;;;;;5130765;28;20489;-70
2022/05/27 13:24:39;;;;;;;6.87;2.93;;;34.00;23.90;;;;;;5128882;28;20441;-70
2022/05/27 13:27:29;;;;;;;6.73;2.30;;;33.60;25.90;;;;;;5128255;28;20438;-70
2022/05/27 13:30:06;;;;;;;8.17;2.50;;;33.40;26.30;;;;;;5127468;28;21003;-71
2022/05/27 13:32:37;;;;;;;4.10;2.13;;;33.20;25.20;;;;;;5128133;28;20456;-71
2022/05/27 13:35:09;;;;;;;4.37;2.27;;;33.80;25.30;;;;;;5128848;28;20434;-71
2022/05/27 13:37:50;;;;;;;5.50;2.80;;;34.70;24.30;;;;;;5127597;28;20434;-70
2022/05/27 13:40:23;;;;;;;7.23;2.80;;;35.70;23.20;;;;;;5129029;28;20477;-69
2022/05/27 13:42:53;;;;;;;4.30;2.40;;;35.60;22.90;;;;;;5129253;28;20458;-68
2022/05/27 13:45:28;;;;;;;5.50;2.57;;;35.10;22.40;;;;;;5130133;28;20434;-67
2022/05/27 13:47:57;;;;;;;4.10;2.00;;;34.70;23.40;;;;;;5128979;28;20454;-69
2022/05/27 13:50:37;;;;;;;4.33;2.50;;;34.80;23.00;;;;;;5129017;28;20474;-69